sensor_id;sensor_type;location;lat;lon;timestamp;temperature;humidity
75865;HTU21D;64510;46.704;38.274;2023-05-10T00:01:24;7.93;98.23
75865;HTU21D;64510;46.704;38.274;2023-05-10T00:03:50;7.93;98.24
75865;HTU21D;64510;46.704;38.274;2023-05-10T00:06:16;7.91;98.19
75865;HTU21D;64510;46.704;38.274;2023-05-10T00:08:42;7.92;98.17
75865;HTU21D;64510;46.704;38.274;2023-05-10T00:11:08;7.93;98.03
75865;HTU21D;64510;46.704;38.274;2023-05-10T00:13:34;7.92;98.04
75865;HTU21D;64510;46.704;38.274;2023-05-10T00:16:00;7.91;98.10
75865;HTU21D;64510;46.704;38.274;2023-05-10T00:18:26;7.93;98.05
75865;HTU21D;64510;46.704;38.274;2023-05-10T00:20:51;7.93;98.04
75865;HTU21D;64510;46.704;38.274;2023-05-10T00:23:17;7.92;98.06
75865;HTU21D;64510;46.704;38.274;2023-05-10T00:25:43;7.92;97.97
75865;HTU21D;64510;46.704;38.274;2023-05-10T00:28:09;7.89;98.05
75865;HTU21D;64510;46.704;38.274;2023-05-10T00:30:36;7.87;98.15
75865;HTU21D;64510;46.704;38.274;2023-05-10T00:33:02;7.87;98.13
75865;HTU21D;64510;46.704;38.274;2023-05-10T00:35:28;7.87;98.14
75865;HTU21D;64510;46.704;38.274;2023-05-10T00:37:54;7.87;98.05
75865;HTU21D;64510;46.704;38.274;2023-05-10T00:40:20;7.85;98.07
75865;HTU21D;64510;46.704;38.274;2023-05-10T00:42:51;7.85;98.13
75865;HTU21D;64510;46.704;38.274;2023-05-10T00:45:17;7.86;98.16
75865;HTU21D;64510;46.704;38.274;2023-05-10T00:47:44;7.87;98.06
75865;HTU21D;64510;46.704;38.274;2023-05-10T00:50:10;7.86;98.06
75865;HTU21D;64510;46.704;38.274;2023-05-10T00:52:37;7.86;98.07
75865;HTU21D;64510;46.704;38.274;2023-05-10T00:55:03;7.86;98.03
75865;HTU21D;64510;46.704;38.274;2023-05-10T00:57:31;7.86;98.03
75865;HTU21D;64510;46.704;38.274;2023-05-10T00:59:57;7.87;98.14
75865;HTU21D;64510;46.704;38.274;2023-05-10T01:02:24;7.86;98.10
75865;HTU21D;64510;46.704;38.274;2023-05-10T01:04:50;7.86;98.03
75865;HTU21D;64510;46.704;38.274;2023-05-10T01:07:16;7.87;98.03
75865;HTU21D;64510;46.704;38.274;2023-05-10T01:09:42;7.87;98.03
75865;HTU21D;64510;46.704;38.274;2023-05-10T01:12:10;7.85;98.00
75865;HTU21D;64510;46.704;38.274;2023-05-10T01:14:37;7.86;97.95
75865;HTU21D;64510;46.704;38.274;2023-05-10T01:17:04;7.86;97.93
75865;HTU21D;64510;46.704;38.274;2023-05-10T01:19:34;7.86;97.87
75865;HTU21D;64510;46.704;38.274;2023-05-10T01:38:50;7.87;97.21
75865;HTU21D;64510;46.704;38.274;2023-05-10T01:41:39;7.86;97.00
75865;HTU21D;64510;46.704;38.274;2023-05-10T01:44:42;7.86;96.87
75865;HTU21D;64510;46.704;38.274;2023-05-10T01:47:15;7.86;96.79
75865;HTU21D;64510;46.704;38.274;2023-05-10T01:49:49;7.86;96.84
75865;HTU21D;64510;46.704;38.274;2023-05-10T01:52:18;7.89;96.72
75865;HTU21D;64510;46.704;38.274;2023-05-10T01:54:53;7.89;96.49
75865;HTU21D;64510;46.704;38.274;2023-05-10T01:57:20;7.88;96.44
75865;HTU21D;64510;46.704;38.274;2023-05-10T01:59:50;7.90;96.35
75865;HTU21D;64510;46.704;38.274;2023-05-10T02:02:17;7.91;96.33
75865;HTU21D;64510;46.704;38.274;2023-05-10T02:04:44;7.91;96.42
75865;HTU21D;64510;46.704;38.274;2023-05-10T02:07:11;7.92;96.48
75865;HTU21D;64510;46.704;38.274;2023-05-10T02:09:38;7.90;96.28
75865;HTU21D;64510;46.704;38.274;2023-05-10T02:12:05;7.91;96.08
75865;HTU21D;64510;46.704;38.274;2023-05-10T02:14:35;7.93;95.98
75865;HTU21D;64510;46.704;38.274;2023-05-10T02:17:04;7.93;95.75
75865;HTU21D;64510;46.704;38.274;2023-05-10T02:19:32;7.92;95.50
75865;HTU21D;64510;46.704;38.274;2023-05-10T02:22:00;7.91;95.50
75865;HTU21D;64510;46.704;38.274;2023-05-10T02:24:27;7.93;95.56
75865;HTU21D;64510;46.704;38.274;2023-05-10T02:26:54;7.92;95.56
75865;HTU21D;64510;46.704;38.274;2023-05-10T02:29:27;7.91;95.48
75865;HTU21D;64510;46.704;38.274;2023-05-10T02:31:54;7.86;95.57
75865;HTU21D;64510;46.704;38.274;2023-05-10T02:34:22;7.86;95.61
75865;HTU21D;64510;46.704;38.274;2023-05-10T02:36:49;7.85;95.75
75865;HTU21D;64510;46.704;38.274;2023-05-10T02:39:18;7.85;95.68
75865;HTU21D;64510;46.704;38.274;2023-05-10T02:41:45;7.84;95.75
75865;HTU21D;64510;46.704;38.274;2023-05-10T02:44:15;7.83;95.78
75865;HTU21D;64510;46.704;38.274;2023-05-10T02:46:41;7.83;95.85
75865;HTU21D;64510;46.704;38.274;2023-05-10T02:49:07;7.83;95.89
75865;HTU21D;64510;46.704;38.274;2023-05-10T02:51:37;7.85;95.94
75865;HTU21D;64510;46.704;38.274;2023-05-10T02:54:12;7.84;95.95
75865;HTU21D;64510;46.704;38.274;2023-05-10T02:56:43;7.83;95.99
75865;HTU21D;64510;46.704;38.274;2023-05-10T02:59:13;7.84;96.00
75865;HTU21D;64510;46.704;38.274;2023-05-10T03:01:39;7.83;95.94
75865;HTU21D;64510;46.704;38.274;2023-05-10T03:04:06;7.83;95.94
75865;HTU21D;64510;46.704;38.274;2023-05-10T03:06:32;7.83;95.88
75865;HTU21D;64510;46.704;38.274;2023-05-10T03:08:58;7.86;95.89
75865;HTU21D;64510;46.704;38.274;2023-05-10T03:11:39;7.86;95.71
75865;HTU21D;64510;46.704;38.274;2023-05-10T03:17:06;7.87;95.62
75865;HTU21D;64510;46.704;38.274;2023-05-10T03:22:08;7.90;95.48
75865;HTU21D;64510;46.704;38.274;2023-05-10T03:24:36;7.91;95.43
75865;HTU21D;64510;46.704;38.274;2023-05-10T03:27:05;7.92;95.49
75865;HTU21D;64510;46.704;38.274;2023-05-10T03:29:31;7.93;95.56
75865;HTU21D;64510;46.704;38.274;2023-05-10T03:31:58;7.96;95.54
75865;HTU21D;64510;46.704;38.274;2023-05-10T03:34:25;7.94;95.55
75865;HTU21D;64510;46.704;38.274;2023-05-10T03:36:52;7.92;95.55
75865;HTU21D;64510;46.704;38.274;2023-05-10T03:39:18;7.91;95.47
75865;HTU21D;64510;46.704;38.274;2023-05-10T03:41:49;7.86;95.57
75865;HTU21D;64510;46.704;38.274;2023-05-10T03:44:15;7.85;95.72
75865;HTU21D;64510;46.704;38.274;2023-05-10T03:46:41;7.85;95.85
75865;HTU21D;64510;46.704;38.274;2023-05-10T03:49:08;7.84;95.90
75865;HTU21D;64510;46.704;38.274;2023-05-10T03:51:35;7.82;95.91
75865;HTU21D;64510;46.704;38.274;2023-05-10T03:54:01;7.79;95.84
75865;HTU21D;64510;46.704;38.274;2023-05-10T03:56:27;7.81;95.93
75865;HTU21D;64510;46.704;38.274;2023-05-10T03:58:53;7.81;95.94
75865;HTU21D;64510;46.704;38.274;2023-05-10T04:01:18;7.84;95.94
75865;HTU21D;64510;46.704;38.274;2023-05-10T04:03:45;7.85;95.87
75865;HTU21D;64510;46.704;38.274;2023-05-10T04:06:11;7.85;95.77
75865;HTU21D;64510;46.704;38.274;2023-05-10T04:08:37;7.89;95.72
75865;HTU21D;64510;46.704;38.274;2023-05-10T04:11:07;7.91;95.49
75865;HTU21D;64510;46.704;38.274;2023-05-10T04:13:33;7.94;95.35
75865;HTU21D;64510;46.704;38.274;2023-05-10T04:16:00;7.96;95.14
75865;HTU21D;64510;46.704;38.274;2023-05-10T04:18:26;7.99;95.01
75865;HTU21D;64510;46.704;38.274;2023-05-10T04:20:51;8.02;94.81
75865;HTU21D;64510;46.704;38.274;2023-05-10T04:23:17;8.05;94.83
75865;HTU21D;64510;46.704;38.274;2023-05-10T04:25:43;8.09;94.75
75865;HTU21D;64510;46.704;38.274;2023-05-10T04:28:09;8.13;94.49
75865;HTU21D;64510;46.704;38.274;2023-05-10T04:30:35;8.18;94.45
75865;HTU21D;64510;46.704;38.274;2023-05-10T04:33:01;8.22;94.27
75865;HTU21D;64510;46.704;38.274;2023-05-10T04:35:30;8.28;94.22
75865;HTU21D;64510;46.704;38.274;2023-05-10T04:37:56;8.35;94.01
75865;HTU21D;64510;46.704;38.274;2023-05-10T04:40:21;8.38;93.72
75865;HTU21D;64510;46.704;38.274;2023-05-10T04:42:47;8.38;93.48
75865;HTU21D;64510;46.704;38.274;2023-05-10T04:45:13;8.41;93.57
75865;HTU21D;64510;46.704;38.274;2023-05-10T04:47:42;8.43;93.53
75865;HTU21D;64510;46.704;38.274;2023-05-10T04:50:08;8.47;93.51
75865;HTU21D;64510;46.704;38.274;2023-05-10T04:52:34;8.49;93.44
75865;HTU21D;64510;46.704;38.274;2023-05-10T04:55:00;8.50;93.31
75865;HTU21D;64510;46.704;38.274;2023-05-10T04:57:26;8.51;93.38
75865;HTU21D;64510;46.704;38.274;2023-05-10T04:59:52;8.47;93.14
75865;HTU21D;64510;46.704;38.274;2023-05-10T05:02:18;8.47;93.21
75865;HTU21D;64510;46.704;38.274;2023-05-10T05:04:44;8.47;93.35
75865;HTU21D;64510;46.704;38.274;2023-05-10T05:07:10;8.48;93.46
75865;HTU21D;64510;46.704;38.274;2023-05-10T05:09:36;8.47;93.44
75865;HTU21D;64510;46.704;38.274;2023-05-10T05:12:02;8.45;93.43
75865;HTU21D;64510;46.704;38.274;2023-05-10T05:14:28;8.46;93.46
75865;HTU21D;64510;46.704;38.274;2023-05-10T05:16:54;8.46;93.50
75865;HTU21D;64510;46.704;38.274;2023-05-10T05:19:20;8.43;93.51
75865;HTU21D;64510;46.704;38.274;2023-05-10T05:21:46;8.46;93.54
75865;HTU21D;64510;46.704;38.274;2023-05-10T05:24:12;8.44;93.24
75865;HTU21D;64510;46.704;38.274;2023-05-10T05:26:38;8.47;93.29
75865;HTU21D;64510;46.704;38.274;2023-05-10T05:29:04;8.49;93.27
75865;HTU21D;64510;46.704;38.274;2023-05-10T05:31:30;8.47;92.96
75865;HTU21D;64510;46.704;38.274;2023-05-10T05:33:56;8.51;93.17
75865;HTU21D;64510;46.704;38.274;2023-05-10T05:36:22;8.52;92.96
75865;HTU21D;64510;46.704;38.274;2023-05-10T05:38:48;8.51;92.98
75865;HTU21D;64510;46.704;38.274;2023-05-10T05:41:14;8.55;93.11
75865;HTU21D;64510;46.704;38.274;2023-05-10T05:43:39;8.59;93.21
75865;HTU21D;64510;46.704;38.274;2023-05-10T05:46:05;8.61;93.19
75865;HTU21D;64510;46.704;38.274;2023-05-10T05:48:31;8.65;93.19
75865;HTU21D;64510;46.704;38.274;2023-05-10T05:50:57;8.71;93.20
75865;HTU21D;64510;46.704;38.274;2023-05-10T05:53:23;8.74;92.88
75865;HTU21D;64510;46.704;38.274;2023-05-10T05:55:57;8.82;92.92
75865;HTU21D;64510;46.704;38.274;2023-05-10T05:58:24;8.86;92.56
75865;HTU21D;64510;46.704;38.274;2023-05-10T06:00:51;8.93;92.77
75865;HTU21D;64510;46.704;38.274;2023-05-10T06:03:18;8.97;92.50
75865;HTU21D;64510;46.704;38.274;2023-05-10T06:05:44;9.03;92.52
75865;HTU21D;64510;46.704;38.274;2023-05-10T06:08:10;9.03;92.34
75865;HTU21D;64510;46.704;38.274;2023-05-10T06:10:36;8.96;92.23
75865;HTU21D;64510;46.704;38.274;2023-05-10T06:13:02;8.93;92.42
75865;HTU21D;64510;46.704;38.274;2023-05-10T06:15:28;8.92;92.30
75865;HTU21D;64510;46.704;38.274;2023-05-10T06:17:54;8.90;92.18
75865;HTU21D;64510;46.704;38.274;2023-05-10T06:20:20;8.97;92.17
75865;HTU21D;64510;46.704;38.274;2023-05-10T06:22:46;9.06;92.19
75865;HTU21D;64510;46.704;38.274;2023-05-10T06:25:12;9.12;91.68
75865;HTU21D;64510;46.704;38.274;2023-05-10T06:27:38;9.17;91.66
75865;HTU21D;64510;46.704;38.274;2023-05-10T06:30:04;9.25;91.76
75865;HTU21D;64510;46.704;38.274;2023-05-10T06:32:31;9.32;91.64
75865;HTU21D;64510;46.704;38.274;2023-05-10T06:34:56;9.36;91.05
75865;HTU21D;64510;46.704;38.274;2023-05-10T06:37:22;9.39;90.73
75865;HTU21D;64510;46.704;38.274;2023-05-10T06:39:48;9.45;90.76
75865;HTU21D;64510;46.704;38.274;2023-05-10T06:42:14;9.49;90.76
75865;HTU21D;64510;46.704;38.274;2023-05-10T06:44:40;9.57;90.63
75865;HTU21D;64510;46.704;38.274;2023-05-10T06:47:06;9.59;90.21
75865;HTU21D;64510;46.704;38.274;2023-05-10T06:49:32;9.61;90.12
75865;HTU21D;64510;46.704;38.274;2023-05-10T06:51:58;9.64;90.24
75865;HTU21D;64510;46.704;38.274;2023-05-10T06:54:24;9.74;90.05
75865;HTU21D;64510;46.704;38.274;2023-05-10T06:56:50;9.81;90.05
75865;HTU21D;64510;46.704;38.274;2023-05-10T06:59:15;9.97;90.01
75865;HTU21D;64510;46.704;38.274;2023-05-10T07:01:42;10.06;89.80
75865;HTU21D;64510;46.704;38.274;2023-05-10T07:04:08;10.14;89.39
75865;HTU21D;64510;46.704;38.274;2023-05-10T07:06:34;10.26;89.11
75865;HTU21D;64510;46.704;38.274;2023-05-10T07:09:00;10.25;88.66
75865;HTU21D;64510;46.704;38.274;2023-05-10T07:11:26;10.27;88.70
75865;HTU21D;64510;46.704;38.274;2023-05-10T07:13:52;10.34;88.70
75865;HTU21D;64510;46.704;38.274;2023-05-10T07:16:18;10.41;88.74
75865;HTU21D;64510;46.704;38.274;2023-05-10T07:18:44;10.44;88.07
75865;HTU21D;64510;46.704;38.274;2023-05-10T07:21:10;10.44;88.13
75865;HTU21D;64510;46.704;38.274;2023-05-10T07:23:35;10.52;88.23
75865;HTU21D;64510;46.704;38.274;2023-05-10T07:26:02;10.59;87.86
75865;HTU21D;64510;46.704;38.274;2023-05-10T07:28:27;10.52;87.02
75865;HTU21D;64510;46.704;38.274;2023-05-10T07:30:53;10.25;87.58
75865;HTU21D;64510;46.704;38.274;2023-05-10T07:33:19;10.07;87.81
75865;HTU21D;64510;46.704;38.274;2023-05-10T07:35:45;9.93;88.22
75865;HTU21D;64510;46.704;38.274;2023-05-10T07:38:11;9.88;88.27
75865;HTU21D;64510;46.704;38.274;2023-05-10T07:40:39;9.82;88.19
75865;HTU21D;64510;46.704;38.274;2023-05-10T07:43:05;9.83;88.45
75865;HTU21D;64510;46.704;38.274;2023-05-10T07:45:31;9.86;88.32
75865;HTU21D;64510;46.704;38.274;2023-05-10T07:47:57;9.90;88.17
75865;HTU21D;64510;46.704;38.274;2023-05-10T07:50:23;9.89;88.24
75865;HTU21D;64510;46.704;38.274;2023-05-10T07:52:48;9.88;88.23
75865;HTU21D;64510;46.704;38.274;2023-05-10T07:55:14;9.76;88.07
75865;HTU21D;64510;46.704;38.274;2023-05-10T07:57:42;9.66;88.41
75865;HTU21D;64510;46.704;38.274;2023-05-10T08:00:08;9.61;88.46
75865;HTU21D;64510;46.704;38.274;2023-05-10T08:02:41;9.53;88.42
75865;HTU21D;64510;46.704;38.274;2023-05-10T08:05:07;9.49;88.39
75865;HTU21D;64510;46.704;38.274;2023-05-10T08:07:33;9.53;88.55
75865;HTU21D;64510;46.704;38.274;2023-05-10T08:09:59;9.62;88.47
75865;HTU21D;64510;46.704;38.274;2023-05-10T08:12:25;9.64;88.51
75865;HTU21D;64510;46.704;38.274;2023-05-10T08:14:51;9.68;88.55
75865;HTU21D;64510;46.704;38.274;2023-05-10T08:17:17;9.72;88.37
75865;HTU21D;64510;46.704;38.274;2023-05-10T08:19:43;9.76;88.32
75865;HTU21D;64510;46.704;38.274;2023-05-10T08:22:09;9.83;88.34
75865;HTU21D;64510;46.704;38.274;2023-05-10T08:24:35;9.95;88.14
75865;HTU21D;64510;46.704;38.274;2023-05-10T08:27:07;9.99;88.16
75865;HTU21D;64510;46.704;38.274;2023-05-10T08:29:32;10.03;88.12
75865;HTU21D;64510;46.704;38.274;2023-05-10T08:31:58;10.00;87.97
75865;HTU21D;64510;46.704;38.274;2023-05-10T08:34:24;9.93;87.99
75865;HTU21D;64510;46.704;38.274;2023-05-10T08:36:50;9.82;88.11
75865;HTU21D;64510;46.704;38.274;2023-05-10T08:39:16;9.76;88.12
75865;HTU21D;64510;46.704;38.274;2023-05-10T08:41:44;9.74;88.28
75865;HTU21D;64510;46.704;38.274;2023-05-10T08:44:10;9.67;88.18
75865;HTU21D;64510;46.704;38.274;2023-05-10T08:46:37;9.64;88.25
75865;HTU21D;64510;46.704;38.274;2023-05-10T08:49:07;9.67;88.44
75865;HTU21D;64510;46.704;38.274;2023-05-10T08:51:36;9.76;88.30
75865;HTU21D;64510;46.704;38.274;2023-05-10T08:54:06;9.83;88.29
75865;HTU21D;64510;46.704;38.274;2023-05-10T08:56:32;9.94;88.10
75865;HTU21D;64510;46.704;38.274;2023-05-10T08:58:58;10.09;87.98
75865;HTU21D;64510;46.704;38.274;2023-05-10T09:01:24;10.22;87.57
75865;HTU21D;64510;46.704;38.274;2023-05-10T09:03:50;10.35;87.67
75865;HTU21D;64510;46.704;38.274;2023-05-10T09:06:17;10.60;87.53
75865;HTU21D;64510;46.704;38.274;2023-05-10T09:08:43;10.71;86.87
75865;HTU21D;64510;46.704;38.274;2023-05-10T09:11:11;10.62;86.51
75865;HTU21D;64510;46.704;38.274;2023-05-10T09:13:37;10.51;86.90
75865;HTU21D;64510;46.704;38.274;2023-05-10T09:16:03;10.36;87.06
75865;HTU21D;64510;46.704;38.274;2023-05-10T09:18:30;10.26;87.38
75865;HTU21D;64510;46.704;38.274;2023-05-10T09:20:56;10.16;87.53
75865;HTU21D;64510;46.704;38.274;2023-05-10T09:23:22;9.97;87.63
75865;HTU21D;64510;46.704;38.274;2023-05-10T09:26:01;9.86;87.89
75865;HTU21D;64510;46.704;38.274;2023-05-10T09:28:32;9.80;88.03
75865;HTU21D;64510;46.704;38.274;2023-05-10T09:30:57;9.72;88.10
75865;HTU21D;64510;46.704;38.274;2023-05-10T09:33:23;9.65;88.28
75865;HTU21D;64510;46.704;38.274;2023-05-10T09:35:51;9.71;88.38
75865;HTU21D;64510;46.704;38.274;2023-05-10T09:38:17;9.79;88.25
75865;HTU21D;64510;46.704;38.274;2023-05-10T09:40:51;9.86;88.09
75865;HTU21D;64510;46.704;38.274;2023-05-10T09:43:20;9.88;88.10
75865;HTU21D;64510;46.704;38.274;2023-05-10T09:45:48;9.94;88.09
75865;HTU21D;64510;46.704;38.274;2023-05-10T09:48:15;10.01;88.18
75865;HTU21D;64510;46.704;38.274;2023-05-10T09:50:41;10.12;88.12
75865;HTU21D;64510;46.704;38.274;2023-05-10T09:53:07;10.28;87.99
75865;HTU21D;64510;46.704;38.274;2023-05-10T09:58:05;10.64;87.57
75865;HTU21D;64510;46.704;38.274;2023-05-10T10:00:40;10.84;87.28
75865;HTU21D;64510;46.704;38.274;2023-05-10T10:03:06;10.99;86.16
75865;HTU21D;64510;46.704;38.274;2023-05-10T10:05:40;11.10;86.80
75865;HTU21D;64510;46.704;38.274;2023-05-10T10:08:06;11.09;86.45
75865;HTU21D;64510;46.704;38.274;2023-05-10T10:10:33;11.19;86.47
75865;HTU21D;64510;46.704;38.274;2023-05-10T10:12:59;11.46;86.12
75865;HTU21D;64510;46.704;38.274;2023-05-10T10:15:25;11.46;84.84
75865;HTU21D;64510;46.704;38.274;2023-05-10T10:17:52;11.47;85.36
75865;HTU21D;64510;46.704;38.274;2023-05-10T10:20:20;11.44;84.68
75865;HTU21D;64510;46.704;38.274;2023-05-10T10:22:46;11.44;84.42
75865;HTU21D;64510;46.704;38.274;2023-05-10T10:25:17;11.40;84.10
75865;HTU21D;64510;46.704;38.274;2023-05-10T10:30:18;11.29;84.36
75865;HTU21D;64510;46.704;38.274;2023-05-10T10:35:38;11.42;83.31
75865;HTU21D;64510;46.704;38.274;2023-05-10T10:38:04;11.43;83.09
75865;HTU21D;64510;46.704;38.274;2023-05-10T10:40:34;11.54;83.45
75865;HTU21D;64510;46.704;38.274;2023-05-10T10:43:26;11.82;82.58
75865;HTU21D;64510;46.704;38.274;2023-05-10T10:46:17;12.03;81.25
75865;HTU21D;64510;46.704;38.274;2023-05-10T10:49:09;12.14;81.82
75865;HTU21D;64510;46.704;38.274;2023-05-10T10:51:39;12.13;81.81
75865;HTU21D;64510;46.704;38.274;2023-05-10T10:54:11;12.32;81.18
75865;HTU21D;64510;46.704;38.274;2023-05-10T10:56:37;12.34;80.85
75865;HTU21D;64510;46.704;38.274;2023-05-10T10:59:03;12.20;80.40
75865;HTU21D;64510;46.704;38.274;2023-05-10T11:01:33;12.17;80.95
75865;HTU21D;64510;46.704;38.274;2023-05-10T11:06:29;12.35;80.07
75865;HTU21D;64510;46.704;38.274;2023-05-10T11:08:57;12.30;80.11
75865;HTU21D;64510;46.704;38.274;2023-05-10T11:11:23;12.23;80.01
75865;HTU21D;64510;46.704;38.274;2023-05-10T11:13:49;12.21;80.14
75865;HTU21D;64510;46.704;38.274;2023-05-10T11:16:19;12.38;80.08
75865;HTU21D;64510;46.704;38.274;2023-05-10T11:21:19;12.51;78.48
75865;HTU21D;64510;46.704;38.274;2023-05-10T11:23:48;12.51;78.44
75865;HTU21D;64510;46.704;38.274;2023-05-10T11:26:14;12.65;78.65
75865;HTU21D;64510;46.704;38.274;2023-05-10T11:28:48;12.93;77.83
75865;HTU21D;64510;46.704;38.274;2023-05-10T11:31:18;12.69;77.40
75865;HTU21D;64510;46.704;38.274;2023-05-10T11:33:51;12.32;77.81
75865;HTU21D;64510;46.704;38.274;2023-05-10T11:36:19;12.10;78.39
75865;HTU21D;64510;46.704;38.274;2023-05-10T11:38:46;12.08;78.52
75865;HTU21D;64510;46.704;38.274;2023-05-10T11:41:13;12.19;78.14
75865;HTU21D;64510;46.704;38.274;2023-05-10T11:43:39;12.20;77.97
75865;HTU21D;64510;46.704;38.274;2023-05-10T11:46:10;12.18;77.50
75865;HTU21D;64510;46.704;38.274;2023-05-10T11:48:38;12.00;77.89
75865;HTU21D;64510;46.704;38.274;2023-05-10T11:51:04;11.99;78.41
75865;HTU21D;64510;46.704;38.274;2023-05-10T11:53:31;11.94;78.51
75865;HTU21D;64510;46.704;38.274;2023-05-10T11:58:31;11.75;79.00
75865;HTU21D;64510;46.704;38.274;2023-05-10T12:00:59;11.70;78.98
75865;HTU21D;64510;46.704;38.274;2023-05-10T12:03:26;11.59;79.31
75865;HTU21D;64510;46.704;38.274;2023-05-10T12:05:52;11.57;79.34
75865;HTU21D;64510;46.704;38.274;2023-05-10T12:08:23;11.57;79.17
75865;HTU21D;64510;46.704;38.274;2023-05-10T12:10:49;11.51;79.17
75865;HTU21D;64510;46.704;38.274;2023-05-10T12:13:15;11.42;79.33
75865;HTU21D;64510;46.704;38.274;2023-05-10T12:15:42;11.29;79.53
75865;HTU21D;64510;46.704;38.274;2023-05-10T12:18:10;11.28;79.91
75865;HTU21D;64510;46.704;38.274;2023-05-10T12:20:36;11.34;79.96
75865;HTU21D;64510;46.704;38.274;2023-05-10T12:23:02;11.49;79.89
75865;HTU21D;64510;46.704;38.274;2023-05-10T12:25:34;11.56;79.47
75865;HTU21D;64510;46.704;38.274;2023-05-10T12:28:03;11.55;79.27
75865;HTU21D;64510;46.704;38.274;2023-05-10T12:30:31;11.49;79.53
75865;HTU21D;64510;46.704;38.274;2023-05-10T12:33:02;11.55;78.95
75865;HTU21D;64510;46.704;38.274;2023-05-10T12:35:33;11.46;78.69
75865;HTU21D;64510;46.704;38.274;2023-05-10T12:37:59;11.37;78.92
75865;HTU21D;64510;46.704;38.274;2023-05-10T12:40:25;11.37;78.97
75865;HTU21D;64510;46.704;38.274;2023-05-10T12:42:51;11.33;79.19
75865;HTU21D;64510;46.704;38.274;2023-05-10T12:45:18;11.40;79.08
75865;HTU21D;64510;46.704;38.274;2023-05-10T12:47:44;11.37;79.12
75865;HTU21D;64510;46.704;38.274;2023-05-10T12:50:10;11.36;79.28
75865;HTU21D;64510;46.704;38.274;2023-05-10T12:52:36;11.42;79.22
75865;HTU21D;64510;46.704;38.274;2023-05-10T12:55:02;11.34;79.14
75865;HTU21D;64510;46.704;38.274;2023-05-10T12:57:28;11.31;79.45
75865;HTU21D;64510;46.704;38.274;2023-05-10T12:59:55;11.42;79.49
75865;HTU21D;64510;46.704;38.274;2023-05-10T13:02:21;11.46;79.09
75865;HTU21D;64510;46.704;38.274;2023-05-10T13:04:48;11.43;78.77
75865;HTU21D;64510;46.704;38.274;2023-05-10T13:07:14;11.36;79.01
75865;HTU21D;64510;46.704;38.274;2023-05-10T13:09:40;11.48;79.20
75865;HTU21D;64510;46.704;38.274;2023-05-10T13:12:06;11.54;78.82
75865;HTU21D;64510;46.704;38.274;2023-05-10T13:14:32;11.47;78.89
75865;HTU21D;64510;46.704;38.274;2023-05-10T13:16:58;11.64;79.02
75865;HTU21D;64510;46.704;38.274;2023-05-10T13:19:24;11.79;78.88
75865;HTU21D;64510;46.704;38.274;2023-05-10T13:21:50;11.77;78.35
75865;HTU21D;64510;46.704;38.274;2023-05-10T13:24:16;11.71;78.73
75865;HTU21D;64510;46.704;38.274;2023-05-10T13:26:43;11.69;78.92
75865;HTU21D;64510;46.704;38.274;2023-05-10T13:29:09;11.58;79.12
75865;HTU21D;64510;46.704;38.274;2023-05-10T13:31:35;11.63;79.53
75865;HTU21D;64510;46.704;38.274;2023-05-10T13:34:01;11.62;79.39
75865;HTU21D;64510;46.704;38.274;2023-05-10T13:36:28;11.69;79.67
75865;HTU21D;64510;46.704;38.274;2023-05-10T13:38:54;11.81;78.95
75865;HTU21D;64510;46.704;38.274;2023-05-10T13:41:20;11.78;78.95
75865;HTU21D;64510;46.704;38.274;2023-05-10T13:43:46;11.71;78.66
75865;HTU21D;64510;46.704;38.274;2023-05-10T13:46:14;11.71;78.87
75865;HTU21D;64510;46.704;38.274;2023-05-10T13:48:40;11.81;78.85
75865;HTU21D;64510;46.704;38.274;2023-05-10T13:51:05;11.85;78.57
75865;HTU21D;64510;46.704;38.274;2023-05-10T13:53:31;11.94;78.51
75865;HTU21D;64510;46.704;38.274;2023-05-10T13:55:57;12.04;78.28
75865;HTU21D;64510;46.704;38.274;2023-05-10T13:58:23;11.92;78.17
75865;HTU21D;64510;46.704;38.274;2023-05-10T14:00:49;11.75;78.61
75865;HTU21D;64510;46.704;38.274;2023-05-10T14:03:15;11.68;78.91
75865;HTU21D;64510;46.704;38.274;2023-05-10T14:05:41;11.77;78.90
75865;HTU21D;64510;46.704;38.274;2023-05-10T14:08:07;11.79;78.24
75865;HTU21D;64510;46.704;38.274;2023-05-10T14:10:34;11.77;78.63
75865;HTU21D;64510;46.704;38.274;2023-05-10T14:13:00;11.75;78.31
75865;HTU21D;64510;46.704;38.274;2023-05-10T14:15:26;11.70;78.61
75865;HTU21D;64510;46.704;38.274;2023-05-10T14:17:52;11.68;78.85
75865;HTU21D;64510;46.704;38.274;2023-05-10T14:20:18;11.71;78.71
75865;HTU21D;64510;46.704;38.274;2023-05-10T14:22:44;11.66;78.80
75865;HTU21D;64510;46.704;38.274;2023-05-10T14:25:10;11.44;79.04
75865;HTU21D;64510;46.704;38.274;2023-05-10T14:27:36;11.37;79.32
75865;HTU21D;64510;46.704;38.274;2023-05-10T14:30:02;11.38;79.53
75865;HTU21D;64510;46.704;38.274;2023-05-10T14:32:28;11.46;79.63
75865;HTU21D;64510;46.704;38.274;2023-05-10T14:34:54;11.48;79.19
75865;HTU21D;64510;46.704;38.274;2023-05-10T14:37:21;11.42;78.82
75865;HTU21D;64510;46.704;38.274;2023-05-10T14:39:47;11.45;79.04
75865;HTU21D;64510;46.704;38.274;2023-05-10T14:42:12;11.46;78.80
75865;HTU21D;64510;46.704;38.274;2023-05-10T14:44:38;11.53;78.55
75865;HTU21D;64510;46.704;38.274;2023-05-10T14:47:05;11.51;78.43
75865;HTU21D;64510;46.704;38.274;2023-05-10T14:49:31;11.51;78.56
75865;HTU21D;64510;46.704;38.274;2023-05-10T14:51:57;11.55;78.40
75865;HTU21D;64510;46.704;38.274;2023-05-10T14:54:22;11.48;78.01
75865;HTU21D;64510;46.704;38.274;2023-05-10T14:56:48;11.45;78.11
75865;HTU21D;64510;46.704;38.274;2023-05-10T14:59:15;11.43;77.95
75865;HTU21D;64510;46.704;38.274;2023-05-10T15:01:41;11.44;77.54
75865;HTU21D;64510;46.704;38.274;2023-05-10T15:04:07;11.41;77.47
75865;HTU21D;64510;46.704;38.274;2023-05-10T15:06:34;11.39;77.12
75865;HTU21D;64510;46.704;38.274;2023-05-10T15:09:01;11.28;77.42
75865;HTU21D;64510;46.704;38.274;2023-05-10T15:11:29;11.28;77.44
75865;HTU21D;64510;46.704;38.274;2023-05-10T15:13:55;11.29;77.59
75865;HTU21D;64510;46.704;38.274;2023-05-10T15:16:21;11.33;77.65
75865;HTU21D;64510;46.704;38.274;2023-05-10T15:18:47;11.33;77.60
75865;HTU21D;64510;46.704;38.274;2023-05-10T15:21:13;11.19;77.55
75865;HTU21D;64510;46.704;38.274;2023-05-10T15:23:39;11.10;77.66
75865;HTU21D;64510;46.704;38.274;2023-05-10T15:26:05;11.08;77.89
75865;HTU21D;64510;46.704;38.274;2023-05-10T15:28:31;11.12;77.88
75865;HTU21D;64510;46.704;38.274;2023-05-10T15:30:57;11.00;77.66
75865;HTU21D;64510;46.704;38.274;2023-05-10T15:33:23;10.94;77.91
75865;HTU21D;64510;46.704;38.274;2023-05-10T15:35:50;10.93;77.92
75865;HTU21D;64510;46.704;38.274;2023-05-10T15:38:16;10.88;77.95
75865;HTU21D;64510;46.704;38.274;2023-05-10T15:40:42;10.84;78.08
75865;HTU21D;64510;46.704;38.274;2023-05-10T15:43:07;10.80;78.29
75865;HTU21D;64510;46.704;38.274;2023-05-10T15:45:33;10.82;78.41
75865;HTU21D;64510;46.704;38.274;2023-05-10T15:47:59;10.75;78.31